createdAt,value
2018-02-21T00:00:22.410Z,91.50
2018-02-21T00:00:54.066Z,91.40
2018-02-21T00:01:25.724Z,91.40
2018-02-21T00:01:57.350Z,91.30
2018-02-21T00:02:28.966Z,91.20
2018-02-21T00:03:00.642Z,91.00
2018-02-21T00:03:32.284Z,91.00
2018-02-21T00:04:03.914Z,91.10
2018-02-21T00:04:35.546Z,91.00
2018-02-21T00:05:07.162Z,91.20
2018-02-21T00:05:38.802Z,91.30
2018-02-21T00:06:10.422Z,91.30
2018-02-21T00:06:42.055Z,91.20
2018-02-21T00:07:13.712Z,91.20
2018-02-21T00:07:45.344Z,91.10
2018-02-21T00:08:17.004Z,91.20
2018-02-21T00:08:48.620Z,91.20
2018-02-21T00:09:20.249Z,91.30
2018-02-21T00:09:51.927Z,91.20
2018-02-21T00:10:23.548Z,91.10
2018-02-21T00:10:55.194Z,91.20
2018-02-21T00:11:26.813Z,91.20
2018-02-21T00:11:58.413Z,91.00
2018-02-21T00:12:30.043Z,91.10
2018-02-21T00:13:01.640Z,91.00
2018-02-21T00:13:33.289Z,91.00
2018-02-21T00:14:04.935Z,90.90
2018-02-21T00:14:36.596Z,91.10
2018-02-21T00:15:08.256Z,91.00
2018-02-21T00:15:39.892Z,90.90
2018-02-21T00:16:11.526Z,90.70
2018-02-21T00:16:43.140Z,90.60
2018-02-21T00:17:14.742Z,90.40
2018-02-21T00:17:46.346Z,90.30
2018-02-21T00:18:17.951Z,90.20
2018-02-21T00:18:49.586Z,90.80
2018-02-21T00:19:21.244Z,90.90
2018-02-21T00:19:52.847Z,90.90
2018-02-21T00:20:24.486Z,90.90
2018-02-21T00:20:56.096Z,90.90
2018-02-21T00:21:27.709Z,90.80
2018-02-21T00:21:59.312Z,90.70
2018-02-21T00:22:30.938Z,90.70
2018-02-21T00:23:02.572Z,90.70
2018-02-21T00:23:34.230Z,90.90
2018-02-21T00:24:05.882Z,91.00
2018-02-21T00:24:37.498Z,91.00
2018-02-21T00:25:09.113Z,90.80
2018-02-21T00:25:40.749Z,90.80
2018-02-21T00:26:12.368Z,90.60
2018-02-21T00:26:44.060Z,90.60
2018-02-21T00:27:15.686Z,90.80
2018-02-21T00:27:47.322Z,90.80
2018-02-21T00:28:18.953Z,90.80
2018-02-21T00:28:50.579Z,90.90
2018-02-21T00:29:22.201Z,90.90
2018-02-21T00:29:53.832Z,90.80
2018-02-21T00:30:25.468Z,90.60
2018-02-21T00:30:57.108Z,90.80
2018-02-21T00:31:28.720Z,90.70
2018-02-21T00:32:00.364Z,90.70
2018-02-21T00:32:31.987Z,90.70
2018-02-21T00:33:03.608Z,90.60
2018-02-21T00:33:35.230Z,90.30
2018-02-21T00:34:06.828Z,90.30
2018-02-21T00:34:38.456Z,90.00
2018-02-21T00:35:10.066Z,90.00
2018-02-21T00:35:41.690Z,89.90
2018-02-21T00:36:13.318Z,89.90
2018-02-21T00:36:44.948Z,89.70
2018-02-21T00:37:16.570Z,89.60
2018-02-21T00:37:48.186Z,89.60
2018-02-21T00:38:19.794Z,89.60
2018-02-21T00:38:51.424Z,89.70
2018-02-21T00:39:23.044Z,89.70
2018-02-21T00:39:54.683Z,89.70
2018-02-21T00:40:26.328Z,90.00
2018-02-21T00:40:57.947Z,89.90
2018-02-21T00:41:29.563Z,89.70
2018-02-21T00:42:01.196Z,89.60
2018-02-21T00:42:32.828Z,89.60
2018-02-21T00:43:04.478Z,89.70
2018-02-21T00:43:36.088Z,89.80
2018-02-21T00:44:07.710Z,89.90
2018-02-21T00:44:39.320Z,90.20
2018-02-21T00:45:10.952Z,90.60
2018-02-21T00:45:42.576Z,90.60
2018-02-21T00:46:14.228Z,90.70
2018-02-21T00:46:45.860Z,90.70
2018-02-21T00:47:17.486Z,90.50
2018-02-21T00:47:49.121Z,90.50
2018-02-21T00:48:20.730Z,90.50
2018-02-21T00:48:52.362Z,90.50
2018-02-21T00:49:23.973Z,90.60
2018-02-21T00:49:55.610Z,90.60
2018-02-21T00:50:27.223Z,90.60
2018-02-21T00:50:58.849Z,90.60
2018-02-21T00:51:30.516Z,90.60
2018-02-21T00:52:02.143Z,90.60
2018-02-21T00:52:33.782Z,90.60
2018-02-21T00:53:05.394Z,90.60
2018-02-21T00:53:37.020Z,90.80
2018-02-21T00:54:08.656Z,90.80
2018-02-21T00:54:40.288Z,90.80
2018-02-21T00:55:11.892Z,90.60
2018-02-21T00:55:43.526Z,90.60
2018-02-21T00:56:15.148Z,90.30
2018-02-21T00:56:46.779Z,90.10
2018-02-21T00:57:18.437Z,90.00
2018-02-21T00:57:50.057Z,90.00
2018-02-21T00:58:21.686Z,90.00
2018-02-21T00:58:53.313Z,90.00
2018-02-21T00:59:24.943Z,89.90
2018-02-21T00:59:56.584Z,89.90
2018-02-21T01:00:28.209Z,89.70
2018-02-21T01:00:59.847Z,89.60
2018-02-21T01:01:31.456Z,89.50
2018-02-21T01:02:03.068Z,89.30
2018-02-21T01:02:34.708Z,89.20
2018-02-21T01:03:06.339Z,89.20
2018-02-21T01:03:37.970Z,89.20
2018-02-21T01:04:09.576Z,89.10
2018-02-21T01:04:41.210Z,89.00
2018-02-21T01:05:12.850Z,89.00
2018-02-21T01:05:44.466Z,88.70
2018-02-21T01:06:16.124Z,88.70
2018-02-21T01:06:47.758Z,88.80
2018-02-21T01:07:19.424Z,88.70
2018-02-21T01:07:51.065Z,88.70
2018-02-21T01:08:22.680Z,88.80
2018-02-21T01:08:54.296Z,88.70
2018-02-21T01:09:25.914Z,88.70
2018-02-21T01:09:57.541Z,88.60
2018-02-21T01:10:29.156Z,88.60
2018-02-21T01:11:00.787Z,88.60
2018-02-21T01:11:32.441Z,88.60
2018-02-21T01:12:04.076Z,88.50
2018-02-21T01:12:36.342Z,88.60
2018-02-21T01:13:07.968Z,88.70
2018-02-21T01:13:39.606Z,88.80
2018-02-21T01:14:11.242Z,89.10
2018-02-21T01:14:42.855Z,89.30
2018-02-21T01:15:14.522Z,89.60
2018-02-21T01:15:46.146Z,89.60
2018-02-21T01:16:17.787Z,89.70
2018-02-21T01:16:49.395Z,89.70
2018-02-21T01:17:21.036Z,89.60
2018-02-21T01:17:52.663Z,89.60
2018-02-21T01:18:24.282Z,89.40
2018-02-21T01:18:55.915Z,89.50
2018-02-21T01:19:27.528Z,89.50
2018-02-21T01:19:59.131Z,89.50
2018-02-21T01:20:30.753Z,89.30
2018-02-21T01:21:02.398Z,89.30
2018-02-21T01:21:34.033Z,89.30
2018-02-21T01:22:05.691Z,89.70
2018-02-21T01:22:37.294Z,89.70
2018-02-21T01:23:08.932Z,90.00
2018-02-21T01:23:40.562Z,90.10
2018-02-21T01:24:12.174Z,90.00
2018-02-21T01:24:43.790Z,90.00
2018-02-21T01:25:15.422Z,89.90
2018-02-21T01:25:47.030Z,89.80
2018-02-21T01:26:18.685Z,89.60
2018-02-21T01:26:50.291Z,89.60
2018-02-21T01:27:21.905Z,89.60
2018-02-21T01:27:53.542Z,89.60
2018-02-21T01:28:25.180Z,89.50
2018-02-21T01:28:56.793Z,89.50
2018-02-21T01:29:28.411Z,89.40
2018-02-21T01:30:00.024Z,89.10
2018-02-21T01:30:31.649Z,89.30
2018-02-21T01:31:03.309Z,89.20
2018-02-21T01:31:34.942Z,89.30
2018-02-21T01:32:06.565Z,89.30
2018-02-21T01:32:38.199Z,89.30
2018-02-21T01:33:09.831Z,89.30
2018-02-21T01:33:41.480Z,89.30
2018-02-21T01:34:13.090Z,89.10
2018-02-21T01:34:44.714Z,89.20
2018-02-21T01:35:16.344Z,89.20
2018-02-21T01:35:47.979Z,89.20
2018-02-21T01:36:19.614Z,89.40
2018-02-21T01:36:51.246Z,89.40
2018-02-21T01:37:22.879Z,89.70
2018-02-21T01:37:54.521Z,89.60
2018-02-21T01:38:26.161Z,89.60
2018-02-21T01:38:57.798Z,89.70
2018-02-21T01:39:29.415Z,89.60
2018-02-21T01:40:01.069Z,89.80
2018-02-21T01:40:32.715Z,89.80
2018-02-21T01:41:04.394Z,89.70
2018-02-21T01:41:36.038Z,89.70
2018-02-21T01:42:07.683Z,89.70
2018-02-21T01:42:39.310Z,89.70
2018-02-21T01:43:10.933Z,90.10
2018-02-21T01:43:42.569Z,90.80
2018-02-21T01:44:14.198Z,90.90
2018-02-21T01:44:45.821Z,91.00
2018-02-21T01:45:17.443Z,90.90
2018-02-21T01:45:49.071Z,91.00
2018-02-21T01:46:20.749Z,91.20
2018-02-21T01:46:52.471Z,91.20
2018-02-21T01:47:24.086Z,91.30
2018-02-21T01:47:55.709Z,91.30
2018-02-21T01:48:27.345Z,91.40
2018-02-21T01:48:58.962Z,91.40
2018-02-21T01:49:30.570Z,91.60
2018-02-21T01:50:02.209Z,91.60
2018-02-21T01:50:51.260Z,91.80
2018-02-21T01:51:22.893Z,91.60
2018-02-21T01:51:54.527Z,91.50
2018-02-21T01:52:26.134Z,91.60
2018-02-21T01:52:57.782Z,91.70
2018-02-21T01:53:29.439Z,91.50
2018-02-21T01:54:01.072Z,91.50
2018-02-21T01:54:32.721Z,91.50
2018-02-21T01:55:04.349Z,91.40
2018-02-21T01:55:35.994Z,91.30
2018-02-21T01:56:07.620Z,91.30
2018-02-21T01:56:39.237Z,91.00
2018-02-21T01:57:10.913Z,90.80
2018-02-21T01:57:42.547Z,90.50
2018-02-21T01:58:14.152Z,90.30
2018-02-21T01:58:45.794Z,90.20
2018-02-21T01:59:17.441Z,90.20
2018-02-21T01:59:49.077Z,90.30
2018-02-21T02:00:20.694Z,90.30
2018-02-21T02:00:52.345Z,90.30
2018-02-21T02:01:23.961Z,90.20
2018-02-21T02:01:55.587Z,90.10
2018-02-21T02:02:27.203Z,90.00
2018-02-21T02:02:58.857Z,90.00
2018-02-21T02:03:30.485Z,89.90
2018-02-21T02:04:02.153Z,90.00
2018-02-21T02:04:33.792Z,90.20
2018-02-21T02:05:05.424Z,90.20
2018-02-21T02:05:37.047Z,90.20
2018-02-21T02:06:08.668Z,90.30
2018-02-21T02:06:40.314Z,90.30
2018-02-21T02:07:11.946Z,90.50
2018-02-21T02:07:43.579Z,90.50
2018-02-21T02:08:15.221Z,90.70
2018-02-21T02:08:46.866Z,90.80
2018-02-21T02:09:18.476Z,90.80
2018-02-21T02:09:50.107Z,90.70
2018-02-21T02:10:21.729Z,90.70
2018-02-21T02:10:53.340Z,90.70
2018-02-21T02:11:24.982Z,90.70
2018-02-21T02:11:56.649Z,90.60
2018-02-21T02:12:28.285Z,90.40
2018-02-21T02:12:59.926Z,90.30
2018-02-21T02:13:31.548Z,90.20
2018-02-21T02:14:03.222Z,90.00
2018-02-21T02:14:34.868Z,89.90
2018-02-21T02:15:06.502Z,89.90
2018-02-21T02:15:38.169Z,89.90
2018-02-21T02:16:09.809Z,89.70
2018-02-21T02:16:41.437Z,89.60
2018-02-21T02:17:13.064Z,89.80
2018-02-21T02:17:44.661Z,89.80
2018-02-21T02:18:16.283Z,89.70
2018-02-21T02:18:47.901Z,89.50
2018-02-21T02:19:19.531Z,89.50
2018-02-21T02:19:51.235Z,89.50
2018-02-21T02:20:22.863Z,89.60
2018-02-21T02:20:54.516Z,89.60
2018-02-21T02:21:26.179Z,89.60
2018-02-21T02:21:57.809Z,89.60
2018-02-21T02:22:29.455Z,90.00
2018-02-21T02:23:01.091Z,90.30
2018-02-21T02:23:32.705Z,90.60
2018-02-21T02:24:04.338Z,90.80
2018-02-21T02:24:35.949Z,90.90
2018-02-21T02:25:07.567Z,90.60
2018-02-21T02:25:39.207Z,90.20
2018-02-21T02:26:10.837Z,90.00
2018-02-21T02:26:42.473Z,89.90
2018-02-21T02:27:14.094Z,89.70
2018-02-21T02:27:45.725Z,89.70
2018-02-21T02:28:17.341Z,89.30
2018-02-21T02:28:48.960Z,89.10
2018-02-21T02:29:20.589Z,89.00
2018-02-21T02:29:52.224Z,89.00
2018-02-21T02:30:23.859Z,88.90
2018-02-21T02:30:55.494Z,88.90
2018-02-21T02:31:27.143Z,88.70
2018-02-21T02:31:58.789Z,88.60
2018-02-21T02:32:30.409Z,88.60
2018-02-21T02:33:02.056Z,88.30
2018-02-21T02:33:33.702Z,88.20
2018-02-21T02:34:05.323Z,88.10
2018-02-21T02:34:36.949Z,88.10
2018-02-21T02:35:08.604Z,88.00
2018-02-21T02:35:40.236Z,88.00
2018-02-21T02:36:11.890Z,87.70
2018-02-21T02:36:43.521Z,87.70
2018-02-21T02:37:15.160Z,87.50
2018-02-21T02:37:46.819Z,87.30
2018-02-21T02:38:37.113Z,87.10
2018-02-21T02:39:27.276Z,87.10
2018-02-21T02:40:00.851Z,86.90
2018-02-21T02:40:32.461Z,86.90
2018-02-21T02:41:04.117Z,86.80
2018-02-21T02:41:35.735Z,86.70
2018-02-21T02:42:07.360Z,87.20
2018-02-21T02:42:38.974Z,87.60
2018-02-21T02:43:10.588Z,88.00
2018-02-21T02:43:42.236Z,88.70
2018-02-21T02:44:13.862Z,88.70
2018-02-21T02:44:45.488Z,88.90
2018-02-21T02:45:17.141Z,89.40
2018-02-21T02:45:48.768Z,89.60
2018-02-21T02:46:20.424Z,89.60
2018-02-21T02:46:52.042Z,89.50
2018-02-21T02:47:23.685Z,89.50
2018-02-21T02:47:55.326Z,89.50
2018-02-21T02:48:26.938Z,89.30
2018-02-21T02:48:58.582Z,89.00
2018-02-21T02:49:30.236Z,88.80
2018-02-21T02:50:01.881Z,88.50
2018-02-21T02:50:33.531Z,88.60
2018-02-21T02:51:05.156Z,88.80
2018-02-21T02:51:36.803Z,89.00
2018-02-21T02:52:08.422Z,89.10
2018-02-21T02:52:40.059Z,89.10
2018-02-21T02:53:11.699Z,89.10
2018-02-21T02:53:43.312Z,89.40
2018-02-21T02:54:14.939Z,89.60
2018-02-21T02:54:46.577Z,89.80
2018-02-21T02:55:18.202Z,89.90
2018-02-21T02:55:49.849Z,89.90
2018-02-21T02:56:21.464Z,89.90
2018-02-21T02:56:53.212Z,89.70
2018-02-21T02:57:24.874Z,89.70
2018-02-21T02:57:56.505Z,89.60
2018-02-21T02:58:28.136Z,89.50
2018-02-21T02:58:59.781Z,89.30
2018-02-21T02:59:31.402Z,89.20
2018-02-21T03:00:03.149Z,89.30
2018-02-21T03:00:34.821Z,89.10
2018-02-21T03:01:06.454Z,89.20
2018-02-21T03:01:38.100Z,89.30
2018-02-21T03:02:09.748Z,89.20
2018-02-21T03:02:41.373Z,89.20
2018-02-21T03:03:13.002Z,89.10
2018-02-21T03:03:44.628Z,89.10
2018-02-21T03:04:16.282Z,89.00
2018-02-21T03:04:47.925Z,89.30
2018-02-21T03:05:19.553Z,89.30
2018-02-21T03:05:51.176Z,89.30
2018-02-21T03:06:22.809Z,89.30
2018-02-21T03:06:54.440Z,89.30
2018-02-21T03:07:26.066Z,89.30
2018-02-21T03:07:57.666Z,89.20
2018-02-21T03:08:29.283Z,89.30
2018-02-21T03:09:00.907Z,89.30
2018-02-21T03:09:32.549Z,89.30
2018-02-21T03:10:04.177Z,89.10
2018-02-21T03:10:35.809Z,89.20
2018-02-21T03:11:07.409Z,89.00
2018-02-21T03:11:39.020Z,89.00
2018-02-21T03:12:10.637Z,89.10
2018-02-21T03:12:42.251Z,89.10
2018-02-21T03:13:13.873Z,89.10
2018-02-21T03:13:45.509Z,89.20
2018-02-21T03:14:17.169Z,89.00
2018-02-21T03:14:48.796Z,89.00
2018-02-21T03:15:20.413Z,88.90
2018-02-21T03:15:52.038Z,88.80
2018-02-21T03:16:23.675Z,88.90
2018-02-21T03:16:55.302Z,88.90
2018-02-21T03:17:26.933Z,89.00
2018-02-21T03:17:58.569Z,89.00
2018-02-21T03:18:30.202Z,89.10
2018-02-21T03:19:01.825Z,89.20
2018-02-21T03:19:33.439Z,89.50
2018-02-21T03:20:05.055Z,89.30
2018-02-21T03:20:36.701Z,89.40
2018-02-21T03:21:08.331Z,89.50
2018-02-21T03:21:39.960Z,89.50
2018-02-21T03:22:11.591Z,89.50
2018-02-21T03:22:43.204Z,89.60
2018-02-21T03:23:14.847Z,89.60
2018-02-21T03:23:46.457Z,89.40
2018-02-21T03:24:18.097Z,89.30
2018-02-21T03:24:49.717Z,89.40
2018-02-21T03:25:21.372Z,89.30
2018-02-21T03:25:53.007Z,89.20
2018-02-21T03:26:24.651Z,89.30
2018-02-21T03:26:56.376Z,89.30
2018-02-21T03:27:28.041Z,89.40
2018-02-21T03:27:59.661Z,89.30
2018-02-21T03:28:31.293Z,89.30
2018-02-21T03:29:02.928Z,89.20
2018-02-21T03:29:34.525Z,89.20
2018-02-21T03:30:06.132Z,89.20
2018-02-21T03:30:37.782Z,89.40
2018-02-21T03:31:09.391Z,89.50
2018-02-21T03:31:41.064Z,89.30
2018-02-21T03:32:12.704Z,89.30
2018-02-21T03:32:44.325Z,89.30
2018-02-21T03:33:15.971Z,89.30
2018-02-21T03:33:47.608Z,89.30
2018-02-21T03:34:19.247Z,89.30
2018-02-21T03:34:50.859Z,89.30
2018-02-21T03:35:22.467Z,89.10
2018-02-21T03:35:54.107Z,89.10
2018-02-21T03:36:25.727Z,89.20
2018-02-21T03:36:57.471Z,89.30
2018-02-21T03:37:29.107Z,89.10
2018-02-21T03:38:00.749Z,89.00
2018-02-21T03:38:32.400Z,89.00
2018-02-21T03:39:04.046Z,89.00
2018-02-21T03:39:35.685Z,89.00
2018-02-21T03:40:07.319Z,89.00
2018-02-21T03:40:38.962Z,89.10
2018-02-21T03:41:10.597Z,89.10
2018-02-21T03:41:42.230Z,89.00
2018-02-21T03:42:13.863Z,89.00
2018-02-21T03:42:45.501Z,89.00
2018-02-21T03:43:17.111Z,89.00
2018-02-21T03:43:48.759Z,89.30
2018-02-21T03:44:20.397Z,89.40
2018-02-21T03:44:52.043Z,89.30
2018-02-21T03:45:23.685Z,89.20
2018-02-21T03:45:55.337Z,89.20
2018-02-21T03:46:26.961Z,89.10
2018-02-21T03:46:58.585Z,89.10
2018-02-21T03:47:30.211Z,89.20
2018-02-21T03:48:01.856Z,89.10
2018-02-21T03:48:33.453Z,89.10
2018-02-21T03:49:05.092Z,89.10
2018-02-21T03:49:36.709Z,89.20
2018-02-21T03:50:08.343Z,89.20
2018-02-21T03:50:39.957Z,89.30
2018-02-21T03:51:11.574Z,89.60
2018-02-21T03:51:43.209Z,89.60
2018-02-21T03:52:14.839Z,89.60
2018-02-21T03:52:46.457Z,89.50
2018-02-21T03:53:18.086Z,89.40
2018-02-21T03:53:49.718Z,89.30
2018-02-21T03:54:21.340Z,89.10
2018-02-21T03:54:52.979Z,88.90
2018-02-21T03:55:24.613Z,88.80
2018-02-21T03:55:56.253Z,88.70
2018-02-21T03:56:27.877Z,88.80
2018-02-21T03:56:59.517Z,88.60
2018-02-21T03:57:31.141Z,88.50
2018-02-21T03:58:02.795Z,88.40
2018-02-21T03:58:34.413Z,88.40
2018-02-21T03:59:06.065Z,88.40
2018-02-21T03:59:37.685Z,88.40
2018-02-21T04:00:09.307Z,88.40
2018-02-21T04:00:40.953Z,88.30
2018-02-21T04:01:12.581Z,88.20
2018-02-21T04:01:44.207Z,88.00
2018-02-21T04:02:15.853Z,87.80
2018-02-21T04:02:47.493Z,87.90
2018-02-21T04:03:19.095Z,87.70
2018-02-21T04:03:50.714Z,87.50
2018-02-21T04:04:22.370Z,87.30
2018-02-21T04:04:53.993Z,87.30
2018-02-21T04:05:25.625Z,87.30
2018-02-21T04:05:57.233Z,87.10
2018-02-21T04:06:28.862Z,86.90
2018-02-21T04:11:58.253Z,86.70
2018-02-21T04:12:29.860Z,86.20
2018-02-21T04:13:01.455Z,86.10
2018-02-21T04:13:33.075Z,86.10
2018-02-21T04:14:04.709Z,86.10
2018-02-21T04:14:36.333Z,86.10
2018-02-21T04:15:07.990Z,86.10
2018-02-21T04:15:39.611Z,86.20
2018-02-21T04:16:11.235Z,86.30
2018-02-21T04:16:42.853Z,86.80
2018-02-21T04:17:14.471Z,87.70
2018-02-21T04:17:46.130Z,88.30
2018-02-21T04:18:17.775Z,88.60
2018-02-21T04:18:49.391Z,88.70
2018-02-21T04:19:21.031Z,89.10
2018-02-21T04:19:52.672Z,89.30
2018-02-21T04:20:25.067Z,89.40
2018-02-21T04:20:56.697Z,89.60
2018-02-21T04:21:28.327Z,89.70
2018-02-21T04:21:59.953Z,90.00
2018-02-21T04:22:31.593Z,90.30
2018-02-21T04:23:03.197Z,90.70
2018-02-21T04:23:34.817Z,90.70
2018-02-21T04:24:06.451Z,90.90
2018-02-21T04:24:38.072Z,90.60
2018-02-21T04:25:09.723Z,90.60
2018-02-21T04:25:41.355Z,90.70
2018-02-21T04:26:12.976Z,90.60
2018-02-21T04:26:44.625Z,90.30
2018-02-21T04:27:16.264Z,90.20
2018-02-21T04:27:47.889Z,90.20
2018-02-21T04:28:19.519Z,90.10
2018-02-21T04:28:51.169Z,90.00
2018-02-21T04:29:22.801Z,90.00
2018-02-21T04:29:54.433Z,89.90
2018-02-21T04:30:26.075Z,89.70
2018-02-21T04:30:57.705Z,89.60
2018-02-21T04:31:29.335Z,89.50
2018-02-21T04:32:00.971Z,89.40
2018-02-21T04:32:32.589Z,89.30
2018-02-21T04:33:04.213Z,89.00
2018-02-21T04:33:35.835Z,89.00
2018-02-21T04:34:07.469Z,88.80
2018-02-21T04:34:39.128Z,88.80
2018-02-21T04:35:10.753Z,88.80
2018-02-21T04:35:42.367Z,88.70
2018-02-21T04:36:13.993Z,88.60
2018-02-21T04:36:45.645Z,89.00
2018-02-21T04:37:17.261Z,89.30
2018-02-21T04:37:48.859Z,89.40
2018-02-21T04:38:20.507Z,89.60
2018-02-21T04:38:52.139Z,89.60
2018-02-21T04:39:23.747Z,89.60
2018-02-21T04:39:55.399Z,89.60
2018-02-21T04:40:27.037Z,89.60
2018-02-21T04:40:58.679Z,89.50
2018-02-21T04:41:30.355Z,89.50
2018-02-21T04:42:01.974Z,89.40
2018-02-21T04:42:33.596Z,89.60
2018-02-21T04:43:05.224Z,89.60
2018-02-21T04:43:36.869Z,89.50
2018-02-21T04:44:08.477Z,89.50
2018-02-21T04:44:40.083Z,89.50
2018-02-21T04:45:11.705Z,89.60
2018-02-21T04:45:43.505Z,90.10
2018-02-21T04:46:15.125Z,90.30
2018-02-21T04:46:46.751Z,90.60
2018-02-21T04:47:18.372Z,91.10
2018-02-21T04:47:49.989Z,91.10
2018-02-21T04:48:21.661Z,91.30
2018-02-21T04:48:53.293Z,91.40
2018-02-21T04:49:24.954Z,91.40
2018-02-21T04:49:56.549Z,91.40
2018-02-21T04:50:28.171Z,91.40
2018-02-21T04:50:59.803Z,91.40
2018-02-21T04:51:31.417Z,91.40
2018-02-21T04:52:03.044Z,91.30
2018-02-21T04:52:34.684Z,91.00
2018-02-21T04:53:06.317Z,90.90
2018-02-21T04:53:37.981Z,90.70
2018-02-21T04:54:09.646Z,90.60
2018-02-21T04:54:45.260Z,90.60
2018-02-21T04:55:23.093Z,90.50
2018-02-21T04:56:00.907Z,90.30
2018-02-21T04:56:38.671Z,90.30
2018-02-21T04:57:16.425Z,90.30
2018-02-21T04:57:48.928Z,90.30
2018-02-21T04:58:26.706Z,90.30
2018-02-21T04:59:04.484Z,90.60
2018-02-21T04:59:39.173Z,90.80
2018-02-21T05:00:10.815Z,90.90
2018-02-21T05:00:42.482Z,90.80
2018-02-21T05:01:14.140Z,90.90
2018-02-21T05:01:45.795Z,91.00
2018-02-21T05:02:17.454Z,91.30
2018-02-21T05:02:49.073Z,91.40
2018-02-21T05:03:20.705Z,91.50
2018-02-21T05:03:52.321Z,91.60
2018-02-21T05:04:23.955Z,91.70
2018-02-21T05:04:55.575Z,91.80
2018-02-21T05:05:27.210Z,91.80
2018-02-21T05:05:58.845Z,91.90
2018-02-21T05:06:30.521Z,91.60
2018-02-21T05:07:02.203Z,91.50
2018-02-21T05:07:33.845Z,91.40
2018-02-21T05:08:05.462Z,91.30
2018-02-21T05:08:37.107Z,91.00
2018-02-21T05:09:08.753Z,90.90
2018-02-21T05:09:40.387Z,90.60
2018-02-21T05:10:12.047Z,90.40
2018-02-21T05:10:43.665Z,90.20
2018-02-21T05:11:15.277Z,90.00
2018-02-21T05:11:46.915Z,90.10
2018-02-21T05:12:18.549Z,90.20
2018-02-21T05:12:50.180Z,90.50
2018-02-21T05:13:21.809Z,90.60
2018-02-21T05:13:53.445Z,91.10
2018-02-21T05:14:25.064Z,91.10
2018-02-21T05:14:56.709Z,91.60
2018-02-21T05:15:28.343Z,91.90
2018-02-21T05:15:59.961Z,92.20
2018-02-21T05:16:31.599Z,92.20
2018-02-21T05:17:03.240Z,92.20
2018-02-21T05:17:34.907Z,92.20
2018-02-21T05:18:06.547Z,92.20
2018-02-21T05:18:38.171Z,92.40
2018-02-21T05:19:09.808Z,92.20
2018-02-21T05:19:41.491Z,92.10
2018-02-21T05:20:13.109Z,92.00
2018-02-21T05:20:44.772Z,92.00
2018-02-21T05:21:16.389Z,91.90
2018-02-21T05:21:48.017Z,91.80
2018-02-21T05:22:19.639Z,91.60
2018-02-21T05:22:51.275Z,91.80
2018-02-21T05:23:22.920Z,91.80
2018-02-21T05:23:54.593Z,91.90
2018-02-21T05:24:26.229Z,92.20
2018-02-21T05:24:57.860Z,92.30
2018-02-21T05:25:29.483Z,92.40
2018-02-21T05:26:01.133Z,92.30
2018-02-21T05:26:32.757Z,92.10
2018-02-21T05:27:04.383Z,91.90
2018-02-21T05:27:36.084Z,91.90
2018-02-21T05:28:07.702Z,92.00
2018-02-21T05:28:39.334Z,91.90
2018-02-21T05:29:10.950Z,91.80
2018-02-21T05:29:42.597Z,91.80
2018-02-21T05:30:14.213Z,91.80
2018-02-21T05:30:45.833Z,91.70
2018-02-21T05:31:17.491Z,91.60
2018-02-21T05:31:49.097Z,91.50
2018-02-21T05:32:20.717Z,91.40
2018-02-21T05:32:52.363Z,91.20
2018-02-21T05:33:24.019Z,91.10
2018-02-21T05:33:55.638Z,90.80
2018-02-21T05:34:27.264Z,90.70
2018-02-21T05:34:58.893Z,90.60
2018-02-21T05:35:30.535Z,90.50
2018-02-21T05:36:02.197Z,90.30
2018-02-21T05:36:33.893Z,90.30
2018-02-21T05:37:05.521Z,90.00
2018-02-21T05:37:37.149Z,90.10
2018-02-21T05:38:08.798Z,89.90
2018-02-21T05:38:40.421Z,89.90
2018-02-21T05:39:12.027Z,89.80
2018-02-21T05:39:43.659Z,89.70
2018-02-21T05:40:15.289Z,89.60
2018-02-21T05:40:46.899Z,89.60
2018-02-21T05:41:18.575Z,89.60
2018-02-21T05:41:50.227Z,89.50
2018-02-21T05:42:21.839Z,89.50
2018-02-21T05:42:53.451Z,89.60
2018-02-21T05:43:25.078Z,89.60
2018-02-21T05:43:56.705Z,89.60
2018-02-21T05:44:28.359Z,89.60
2018-02-21T05:44:59.983Z,89.50
2018-02-21T05:45:31.606Z,89.50
2018-02-21T05:46:03.259Z,89.60
2018-02-21T05:46:34.894Z,89.50
2018-02-21T05:47:06.561Z,89.50
2018-02-21T05:47:38.188Z,89.60
2018-02-21T05:48:09.821Z,89.40
2018-02-21T05:48:41.443Z,89.40
2018-02-21T05:49:13.075Z,89.50
2018-02-21T05:49:44.699Z,89.40
2018-02-21T05:50:16.321Z,89.40
2018-02-21T05:50:47.954Z,89.40
2018-02-21T05:51:19.573Z,89.30
2018-02-21T05:51:51.201Z,89.30
2018-02-21T05:52:22.835Z,89.30
2018-02-21T05:52:54.458Z,89.20
2018-02-21T05:53:26.118Z,89.10
2018-02-21T05:53:57.725Z,89.20
2018-02-21T05:54:29.375Z,89.00
2018-02-21T05:55:00.997Z,89.00
2018-02-21T05:55:32.610Z,89.00
2018-02-21T05:56:04.233Z,89.00
2018-02-21T05:56:35.874Z,89.10
2018-02-21T05:57:07.505Z,89.00
2018-02-21T05:57:39.158Z,89.00
2018-02-21T05:58:10.798Z,89.00
2018-02-21T05:58:42.447Z,89.00
2018-02-21T05:59:14.099Z,89.00
2018-02-21T05:59:45.733Z,89.00
2018-02-21T06:00:17.361Z,89.10
2018-02-21T06:00:48.995Z,89.00
2018-02-21T06:01:20.623Z,89.00
2018-02-21T06:01:52.244Z,89.00
2018-02-21T06:02:23.910Z,89.00
2018-02-21T06:02:55.565Z,89.00
2018-02-21T06:03:27.229Z,89.00
2018-02-21T06:03:58.851Z,89.00
2018-02-21T06:04:30.501Z,89.00
2018-02-21T06:05:02.126Z,89.00
2018-02-21T06:05:33.761Z,89.00
2018-02-21T06:06:05.395Z,89.00
2018-02-21T06:06:37.021Z,88.90
2018-02-21T06:07:08.641Z,88.90
2018-02-21T06:07:40.275Z,89.00
2018-02-21T06:08:11.923Z,89.00
2018-02-21T06:08:43.545Z,88.90
2018-02-21T06:09:15.173Z,88.90
2018-02-21T06:09:46.799Z,88.90
2018-02-21T06:10:18.435Z,89.00
2018-02-21T06:10:50.072Z,88.90
2018-02-21T06:11:21.705Z,89.00
2018-02-21T06:11:53.329Z,89.00
2018-02-21T06:12:24.933Z,89.00
2018-02-21T06:12:56.553Z,88.90
2018-02-21T06:13:28.189Z,88.90
2018-02-21T06:13:59.807Z,88.90
2018-02-21T06:14:31.453Z,89.00
2018-02-21T06:15:03.133Z,89.00
2018-02-21T06:15:34.769Z,89.00
2018-02-21T06:16:06.440Z,89.00
2018-02-21T06:16:38.071Z,89.20
2018-02-21T06:17:09.727Z,89.30
2018-02-21T06:17:41.339Z,89.20
2018-02-21T06:18:12.969Z,89.10
2018-02-21T06:18:44.615Z,89.00
2018-02-21T06:19:16.228Z,89.00
2018-02-21T06:19:47.897Z,89.00
2018-02-21T06:20:19.507Z,88.90
2018-02-21T06:20:51.151Z,89.00
2018-02-21T06:21:22.765Z,88.90
2018-02-21T06:21:54.405Z,89.00
2018-02-21T06:22:26.057Z,89.00
2018-02-21T06:22:57.700Z,89.00
2018-02-21T06:23:29.323Z,89.00
2018-02-21T06:24:00.993Z,89.00
2018-02-21T06:24:32.607Z,89.10
2018-02-21T06:25:04.267Z,89.10
2018-02-21T06:25:35.895Z,89.10
2018-02-21T06:26:07.536Z,89.10
2018-02-21T06:26:39.169Z,89.10
2018-02-21T06:27:10.783Z,89.10
2018-02-21T06:27:42.401Z,89.10
2018-02-21T06:28:14.063Z,89.00
2018-02-21T06:28:45.695Z,89.00
2018-02-21T06:29:17.327Z,88.90
2018-02-21T06:29:48.951Z,89.00
2018-02-21T06:30:20.557Z,89.00
2018-02-21T06:30:52.222Z,88.90
2018-02-21T06:31:23.857Z,89.00
2018-02-21T06:31:55.494Z,89.10
2018-02-21T06:32:27.130Z,89.00
2018-02-21T06:32:58.746Z,89.20
2018-02-21T06:33:30.367Z,89.20
2018-02-21T06:34:01.989Z,89.10
2018-02-21T06:34:33.649Z,89.10
2018-02-21T06:35:05.255Z,89.00
2018-02-21T06:35:36.885Z,89.10
2018-02-21T06:36:08.519Z,89.10
2018-02-21T06:36:40.161Z,89.10
2018-02-21T06:37:11.809Z,89.20
2018-02-21T06:37:43.442Z,89.00
2018-02-21T06:38:15.058Z,89.10
2018-02-21T06:38:46.691Z,89.10
2018-02-21T06:39:18.333Z,89.30
2018-02-21T06:39:49.957Z,89.30
2018-02-21T06:40:21.567Z,89.40
2018-02-21T06:40:53.213Z,89.30
2018-02-21T06:41:24.849Z,89.30
2018-02-21T06:41:56.493Z,89.50
2018-02-21T06:42:28.155Z,89.50
2018-02-21T06:42:59.787Z,89.50
2018-02-21T06:43:31.435Z,89.60
2018-02-21T06:44:03.077Z,89.60
2018-02-21T06:44:34.695Z,89.60
2018-02-21T06:45:06.338Z,89.40
2018-02-21T06:45:37.957Z,89.50
2018-02-21T06:46:09.573Z,89.50
2018-02-21T06:46:41.199Z,89.30
2018-02-21T06:47:12.876Z,89.40
2018-02-21T06:47:44.490Z,89.40
2018-02-21T06:48:16.120Z,89.60
2018-02-21T06:48:47.763Z,89.50
2018-02-21T06:49:19.397Z,89.60
2018-02-21T06:49:51.025Z,89.50
2018-02-21T06:50:22.661Z,89.60
2018-02-21T06:50:54.307Z,89.80
2018-02-21T06:51:25.945Z,89.90
2018-02-21T06:51:57.575Z,89.90
2018-02-21T06:52:29.185Z,89.90
2018-02-21T06:53:00.800Z,89.90
2018-02-21T06:53:32.421Z,89.90
2018-02-21T06:54:04.043Z,89.90